createdAt,value
2022-11-10T00:01:06.528Z,12.10
2022-11-10T00:03:33.773Z,12.09
2022-11-10T00:06:02.700Z,12.06
2022-11-10T00:08:29.414Z,12.12
2022-11-10T00:10:58.983Z,12.09
2022-11-10T00:13:27.866Z,12.08
2022-11-10T00:16:13.700Z,12.08
2022-11-10T00:18:40.338Z,12.06
2022-11-10T00:21:09.701Z,12.06
2022-11-10T00:23:36.767Z,12.01
2022-11-10T00:26:04.020Z,12.04
2022-11-10T00:28:32.362Z,12.05
2022-11-10T00:30:59.230Z,12.06
2022-11-10T00:33:25.870Z,12.05
2022-11-10T00:35:52.528Z,12.08
2022-11-10T00:38:19.146Z,12.02
2022-11-10T00:43:25.316Z,12.01
2022-11-10T00:45:53.070Z,12.01
2022-11-10T00:48:19.696Z,12.06
2022-11-10T00:50:46.351Z,12.04
2022-11-10T00:53:13.255Z,12.00
2022-11-10T00:55:41.182Z,11.96
2022-11-10T00:58:08.188Z,11.99
2022-11-10T01:00:34.834Z,12.00
2022-11-10T01:03:02.723Z,12.04
2022-11-10T01:05:32.234Z,12.05
2022-11-10T01:07:59.741Z,11.94
2022-11-10T01:10:27.140Z,11.97
2022-11-10T01:12:54.080Z,11.94
2022-11-10T01:15:26.165Z,11.94
2022-11-10T01:17:55.458Z,11.92
2022-11-10T01:20:23.070Z,11.88
2022-11-10T01:22:49.710Z,11.89
2022-11-10T01:25:16.333Z,11.89
2022-11-10T01:27:42.913Z,11.92
2022-11-10T01:30:09.890Z,11.91
2022-11-10T01:32:36.500Z,11.92
2022-11-10T01:35:03.180Z,11.92
2022-11-10T01:37:29.821Z,11.88
2022-11-10T01:39:56.521Z,11.84
2022-11-10T01:42:28.666Z,11.85
2022-11-10T01:45:23.024Z,11.84
2022-11-10T01:47:55.543Z,11.86
2022-11-10T01:50:25.730Z,11.80
2022-11-10T01:52:56.131Z,11.77
2022-11-10T01:55:24.118Z,11.74
2022-11-10T01:57:51.453Z,11.64
2022-11-10T02:00:19.375Z,11.71
2022-11-10T02:03:19.016Z,11.60
2022-11-10T02:05:46.062Z,11.54
2022-11-10T02:08:15.929Z,11.48
2022-11-10T02:10:42.859Z,11.40
2022-11-10T02:13:11.162Z,11.48
2022-11-10T02:15:38.018Z,11.41
2022-11-10T02:18:04.605Z,11.31
2022-11-10T02:20:31.212Z,11.26
2022-11-10T02:22:57.810Z,11.31
2022-11-10T02:25:30.405Z,11.31
2022-11-10T02:27:56.975Z,11.30
2022-11-10T02:30:27.459Z,11.26
2022-11-10T02:32:54.475Z,11.30
2022-11-10T02:35:21.144Z,11.21
2022-11-10T02:37:47.727Z,11.19
2022-11-10T02:40:14.413Z,11.20
2022-11-10T02:42:41.018Z,11.23
2022-11-10T02:45:08.898Z,11.32
2022-11-10T02:47:35.730Z,11.27
2022-11-10T02:50:02.329Z,11.35
2022-11-10T02:52:28.867Z,11.37
2022-11-10T02:54:55.478Z,11.38
2022-11-10T02:57:22.033Z,11.39
2022-11-10T02:59:48.571Z,11.41
2022-11-10T03:02:15.607Z,11.33
2022-11-10T03:04:42.333Z,11.22
2022-11-10T03:07:08.960Z,11.14
2022-11-10T03:09:35.852Z,11.11
2022-11-10T03:12:02.436Z,11.20
2022-11-10T03:14:28.994Z,11.23
2022-11-10T03:16:55.568Z,11.25
2022-11-10T03:19:22.157Z,11.20
2022-11-10T03:21:48.717Z,11.21
2022-11-10T03:24:15.359Z,11.20
2022-11-10T03:26:41.918Z,11.19
2022-11-10T03:29:08.622Z,11.23
2022-11-10T03:31:35.218Z,11.28
2022-11-10T03:34:01.783Z,11.26
2022-11-10T03:36:28.387Z,11.20
2022-11-10T03:38:54.941Z,11.21
2022-11-10T03:41:21.488Z,11.18
2022-11-10T03:43:49.405Z,11.22
2022-11-10T03:46:17.139Z,11.19
2022-11-10T03:48:46.311Z,11.23
2022-11-10T03:51:17.335Z,11.20
2022-11-10T03:53:43.933Z,11.20
2022-11-10T03:56:11.352Z,11.16
2022-11-10T03:58:38.049Z,11.19
2022-11-10T04:01:04.864Z,11.20
2022-11-10T04:03:31.505Z,11.21
2022-11-10T04:06:16.905Z,11.25
2022-11-10T04:09:01.518Z,11.34
2022-11-10T04:11:48.383Z,11.36
2022-11-10T04:14:34.212Z,11.34
2022-11-10T04:17:01.809Z,11.35
2022-11-10T04:19:28.839Z,11.37
2022-11-10T04:21:55.605Z,11.36
2022-11-10T04:24:22.264Z,11.35
2022-11-10T04:26:49.545Z,11.25
2022-11-10T04:29:18.643Z,11.26
2022-11-10T04:31:45.323Z,11.25
2022-11-10T04:34:14.174Z,11.25
2022-11-10T04:36:42.798Z,11.28
2022-11-10T04:39:10.881Z,11.26
2022-11-10T04:41:37.948Z,11.25
2022-11-10T04:44:04.996Z,11.22
2022-11-10T04:46:35.798Z,11.14
2022-11-10T04:49:03.848Z,11.13
2022-11-10T04:51:36.338Z,10.99
2022-11-10T04:54:03.563Z,11.06
2022-11-10T04:56:30.588Z,11.02
2022-11-10T04:58:57.190Z,11.04
2022-11-10T05:01:26.342Z,11.04
2022-11-10T05:03:54.303Z,10.87
2022-11-10T05:06:21.416Z,10.90
2022-11-10T05:08:48.352Z,10.90
2022-11-10T05:11:15.275Z,10.87
2022-11-10T05:13:42.905Z,10.86
2022-11-10T05:16:09.974Z,10.73
2022-11-10T05:18:37.153Z,10.72
2022-11-10T05:21:04.154Z,10.71
2022-11-10T05:23:39.796Z,10.57
2022-11-10T05:26:15.217Z,10.79
2022-11-10T05:28:43.819Z,10.58
2022-11-10T05:31:10.909Z,10.61
2022-11-10T05:33:38.273Z,10.46
2022-11-10T05:36:06.522Z,10.36
2022-11-10T05:41:10.710Z,10.13
2022-11-10T05:43:37.340Z,10.03
2022-11-10T05:46:03.977Z,9.98
2022-11-10T05:48:30.661Z,10.02
2022-11-10T05:50:57.264Z,9.80
2022-11-10T05:53:24.223Z,9.90
2022-11-10T05:55:51.131Z,10.15
2022-11-10T05:58:17.751Z,10.14
2022-11-10T06:00:44.368Z,10.05
2022-11-10T06:03:18.792Z,9.92
2022-11-10T06:05:46.287Z,10.02
2022-11-10T06:08:13.014Z,9.93
2022-11-10T06:10:39.861Z,9.87
2022-11-10T06:13:06.861Z,9.86
2022-11-10T06:15:33.449Z,9.79
2022-11-10T06:18:00.102Z,9.64
2022-11-10T06:20:28.216Z,9.73
2022-11-10T06:23:14.082Z,9.59
2022-11-10T06:25:41.787Z,9.53
2022-11-10T06:28:09.702Z,9.41
2022-11-10T06:30:37.900Z,9.64
2022-11-10T06:33:04.807Z,9.66
2022-11-10T06:35:31.688Z,9.66
2022-11-10T06:38:02.560Z,9.81
2022-11-10T06:40:30.193Z,9.92
2022-11-10T06:42:57.134Z,10.10
2022-11-10T06:45:25.372Z,9.91
2022-11-10T06:48:05.424Z,10.00
2022-11-10T06:50:32.484Z,10.23
2022-11-10T06:53:00.336Z,10.26
2022-11-10T06:55:27.525Z,10.27
2022-11-10T06:57:54.564Z,10.30
2022-11-10T07:00:21.781Z,10.33
2022-11-10T07:02:48.559Z,10.36
2022-11-10T07:05:15.572Z,10.21
2022-11-10T07:07:42.813Z,10.16
2022-11-10T07:10:09.690Z,10.42
2022-11-10T07:12:36.341Z,10.42
2022-11-10T07:15:03.030Z,10.56
2022-11-10T07:17:29.634Z,10.54
2022-11-10T07:19:56.221Z,10.52
2022-11-10T07:22:23.632Z,10.63
2022-11-10T07:24:50.227Z,10.46
2022-11-10T07:27:16.805Z,10.56
2022-11-10T07:29:43.459Z,10.60
2022-11-10T07:32:10.016Z,10.59
2022-11-10T07:34:36.592Z,10.58
2022-11-10T07:37:03.153Z,10.69
2022-11-10T07:39:29.716Z,10.71
2022-11-10T07:41:56.354Z,10.76
2022-11-10T07:44:22.917Z,10.75
2022-11-10T07:46:49.921Z,10.75
2022-11-10T07:49:16.558Z,10.52
2022-11-10T07:51:43.636Z,10.57
2022-11-10T07:54:10.508Z,10.53
2022-11-10T07:56:37.142Z,10.55
2022-11-10T07:59:03.865Z,10.67
2022-11-10T08:01:30.586Z,10.72
2022-11-10T08:03:57.421Z,10.71
2022-11-10T08:06:24.148Z,10.78
2022-11-10T08:08:50.887Z,10.97
2022-11-10T08:11:17.505Z,10.93
2022-11-10T08:13:44.118Z,11.12
2022-11-10T08:16:10.726Z,11.21
2022-11-10T08:18:37.351Z,11.48
2022-11-10T08:21:05.874Z,11.71
2022-11-10T08:23:33.351Z,11.79
2022-11-10T08:26:01.583Z,12.06
2022-11-10T08:28:28.783Z,12.23
2022-11-10T08:30:55.514Z,12.48
2022-11-10T08:33:22.720Z,12.85
2022-11-10T08:35:51.677Z,13.03
2022-11-10T08:38:23.145Z,13.02
2022-11-10T08:40:49.980Z,13.15
2022-11-10T08:43:18.402Z,13.41
2022-11-10T08:45:45.459Z,13.64
2022-11-10T08:48:14.479Z,13.76
2022-11-10T08:50:41.982Z,13.75
2022-11-10T08:53:13.125Z,13.87
2022-11-10T08:55:40.830Z,13.95
2022-11-10T08:58:08.730Z,13.88
2022-11-10T09:00:35.524Z,13.78
2022-11-10T09:03:07.988Z,13.95
2022-11-10T09:05:36.236Z,14.22
2022-11-10T09:08:04.329Z,14.33
2022-11-10T09:10:32.354Z,14.21
2022-11-10T09:13:01.105Z,14.38
2022-11-10T09:15:28.235Z,14.69
2022-11-10T09:17:54.827Z,14.80
2022-11-10T09:20:21.509Z,14.86
2022-11-10T09:22:48.117Z,14.87
2022-11-10T09:25:14.732Z,14.96
2022-11-10T09:27:41.348Z,14.97
2022-11-10T09:32:46.954Z,15.11
2022-11-10T09:35:13.916Z,15.40
2022-11-10T09:37:41.264Z,15.39
2022-11-10T09:40:17.755Z,15.18
2022-11-10T09:42:46.861Z,14.85
2022-11-10T09:45:25.280Z,14.56
2022-11-10T09:48:02.174Z,14.03
2022-11-10T09:50:55.241Z,13.84
2022-11-10T09:53:27.141Z,13.78
2022-11-10T09:55:59.050Z,13.68
2022-11-10T09:58:33.739Z,13.58
2022-11-10T10:01:12.251Z,13.53
2022-11-10T10:03:52.975Z,13.52
2022-11-10T10:06:22.086Z,13.47
2022-11-10T10:09:08.257Z,13.46
2022-11-10T10:11:48.720Z,13.42
2022-11-10T10:14:29.907Z,13.33
2022-11-10T10:17:06.217Z,13.38
2022-11-10T10:19:56.803Z,13.47
2022-11-10T10:22:48.782Z,13.59
2022-11-10T10:25:27.009Z,13.66
2022-11-10T10:28:22.904Z,13.65
2022-11-10T10:30:49.925Z,13.63
2022-11-10T10:33:21.186Z,13.63
2022-11-10T10:35:50.628Z,13.55
2022-11-10T10:38:26.823Z,13.52
2022-11-10T10:41:00.300Z,13.49
2022-11-10T10:43:26.906Z,13.51
2022-11-10T10:46:15.929Z,13.52
2022-11-10T10:48:42.752Z,13.50
2022-11-10T10:51:09.459Z,13.55
2022-11-10T10:53:47.688Z,13.62
2022-11-10T10:56:25.107Z,13.64
2022-11-10T10:59:00.619Z,13.86
2022-11-10T11:04:37.156Z,14.17
2022-11-10T11:07:06.436Z,14.32
2022-11-10T11:09:42.695Z,14.50
2022-11-10T11:12:13.940Z,14.77
2022-11-10T11:14:45.655Z,14.95
2022-11-10T11:17:14.285Z,15.00
2022-11-10T11:19:41.185Z,14.97
2022-11-10T11:22:39.441Z,15.05
2022-11-10T11:25:18.587Z,14.90
2022-11-10T11:28:06.116Z,14.83
2022-11-10T11:36:16.514Z,15.22
2022-11-10T11:38:52.025Z,15.55
2022-11-10T11:41:21.061Z,15.58
2022-11-10T11:44:09.535Z,15.68
2022-11-10T11:46:43.672Z,15.43
2022-11-10T11:49:35.549Z,15.63
2022-11-10T11:52:29.009Z,15.89
2022-11-10T11:55:01.400Z,15.82
2022-11-10T11:57:40.461Z,15.68
2022-11-10T12:00:14.092Z,15.94
2022-11-10T12:03:10.251Z,16.20
2022-11-10T12:06:18.380Z,16.03
2022-11-10T12:09:06.535Z,15.94
2022-11-10T12:11:33.060Z,15.85
2022-11-10T12:14:26.873Z,15.89
2022-11-10T12:17:12.812Z,15.97
2022-11-10T12:20:21.898Z,16.15
2022-11-10T12:23:01.213Z,16.21
2022-11-10T12:25:46.010Z,16.22
2022-11-10T12:28:25.789Z,16.39
2022-11-10T12:31:01.738Z,16.14
2022-11-10T12:33:38.184Z,16.41
2022-11-10T12:36:11.732Z,16.50
2022-11-10T12:39:06.276Z,16.37
2022-11-10T12:41:42.114Z,16.41
2022-11-10T12:44:21.395Z,16.58
2022-11-10T12:46:53.525Z,16.46
2022-11-10T12:49:32.582Z,16.31
2022-11-10T12:52:11.095Z,16.53
2022-11-10T12:54:39.219Z,16.63
2022-11-10T12:57:12.797Z,16.73
2022-11-10T12:59:42.222Z,16.80
2022-11-10T13:02:25.421Z,16.53
2022-11-10T13:05:13.683Z,16.54
2022-11-10T13:07:43.069Z,16.60
2022-11-10T13:10:22.710Z,16.66
2022-11-10T13:13:04.499Z,16.54
2022-11-10T13:15:36.823Z,16.45
2022-11-10T13:18:08.738Z,16.54
2022-11-10T13:20:48.387Z,16.38
2022-11-10T13:23:27.135Z,16.35
2022-11-10T13:29:29.486Z,16.16
2022-11-10T13:31:58.044Z,16.18
2022-11-10T13:34:32.871Z,16.15
2022-11-10T13:39:39.551Z,15.97
2022-11-10T13:42:09.040Z,15.89
2022-11-10T13:44:42.431Z,15.84
2022-11-10T13:47:09.027Z,15.91
2022-11-10T13:49:56.733Z,15.86
2022-11-10T13:52:41.764Z,15.84
2022-11-10T13:55:18.955Z,15.77
2022-11-10T13:58:04.982Z,15.79
2022-11-10T14:00:35.976Z,15.83
2022-11-10T14:03:07.339Z,15.73
2022-11-10T14:05:42.051Z,15.70
2022-11-10T14:08:17.338Z,15.62
2022-11-10T14:10:52.403Z,15.58
2022-11-10T14:13:34.018Z,15.56
2022-11-10T14:16:01.144Z,15.53
2022-11-10T14:18:41.327Z,15.52
2022-11-10T14:21:12.381Z,15.44
2022-11-10T14:23:52.275Z,15.31
2022-11-10T14:26:31.728Z,15.39
2022-11-10T14:29:26.760Z,15.30
2022-11-10T14:31:53.393Z,15.22
2022-11-10T14:34:20.234Z,15.30
2022-11-10T14:37:00.594Z,15.22
2022-11-10T14:39:33.579Z,15.07
2022-11-10T14:42:02.914Z,14.97
2022-11-10T14:44:30.673Z,14.90
2022-11-10T14:47:24.106Z,14.85
2022-11-10T14:50:15.214Z,14.76
2022-11-10T14:52:44.180Z,14.74
2022-11-10T14:55:17.854Z,14.70
2022-11-10T14:57:51.075Z,14.64
2022-11-10T15:00:22.238Z,14.45
2022-11-10T15:02:49.242Z,14.41
2022-11-10T15:05:16.537Z,14.30
2022-11-10T15:07:44.109Z,14.21
2022-11-10T15:10:21.541Z,14.09
2022-11-10T15:13:17.910Z,14.01
2022-11-10T15:15:44.725Z,13.90
2022-11-10T15:18:29.367Z,13.86
2022-11-10T15:21:01.861Z,13.76
2022-11-10T15:23:36.578Z,13.85
2022-11-10T15:26:16.530Z,13.79
2022-11-10T15:28:43.826Z,13.76
2022-11-10T15:31:14.258Z,13.70
2022-11-10T15:33:47.415Z,13.50
2022-11-10T15:36:28.394Z,13.28
2022-11-10T15:39:13.047Z,13.18
2022-11-10T15:41:58.689Z,13.07
2022-11-10T15:44:28.251Z,12.98
2022-11-10T15:46:56.170Z,12.88
2022-11-10T15:49:24.581Z,12.68
2022-11-10T15:51:53.242Z,12.73
2022-11-10T15:54:22.667Z,12.77
2022-11-10T15:56:49.236Z,12.63
2022-11-10T15:59:15.828Z,12.56
2022-11-10T16:01:42.474Z,12.52
2022-11-10T16:04:10.252Z,12.52
2022-11-10T16:06:37.279Z,12.55
2022-11-10T16:09:04.984Z,12.44
2022-11-10T16:11:32.361Z,12.33
2022-11-10T16:14:00.466Z,12.12
2022-11-10T16:16:27.160Z,12.26
2022-11-10T16:18:53.967Z,12.29
2022-11-10T16:21:25.759Z,12.30
2022-11-10T16:23:53.427Z,12.23
2022-11-10T16:26:23.865Z,12.22
2022-11-10T16:28:50.873Z,12.20
2022-11-10T16:31:19.549Z,12.19
2022-11-10T16:33:46.752Z,12.15
2022-11-10T16:36:26.362Z,12.01
2022-11-10T16:38:54.229Z,11.90
2022-11-10T16:41:22.370Z,11.81
2022-11-10T16:43:49.054Z,11.70
2022-11-10T16:46:29.866Z,11.64
2022-11-10T16:48:58.833Z,11.67
2022-11-10T16:51:29.408Z,11.55
2022-11-10T16:53:56.593Z,11.41
2022-11-10T16:56:23.283Z,11.49
2022-11-10T16:58:49.924Z,11.31
2022-11-10T17:01:22.452Z,11.25
2022-11-10T17:03:55.639Z,11.19
2022-11-10T17:06:24.972Z,11.06
2022-11-10T17:08:54.354Z,11.17
2022-11-10T17:11:21.475Z,11.03
2022-11-10T17:13:48.078Z,10.86
2022-11-10T17:16:36.230Z,10.73
2022-11-10T17:19:05.613Z,10.66
2022-11-10T17:21:34.705Z,10.75
2022-11-10T17:24:02.749Z,10.71
2022-11-10T17:26:29.877Z,10.89
2022-11-10T17:28:56.681Z,11.02
2022-11-10T17:31:23.309Z,11.07
2022-11-10T17:33:49.955Z,11.10
2022-11-10T17:36:22.796Z,10.97
2022-11-10T17:38:51.303Z,10.93
2022-11-10T17:41:19.888Z,10.93
2022-11-10T17:43:47.261Z,10.79
2022-11-10T17:46:15.190Z,10.87
2022-11-10T17:48:42.424Z,11.01
2022-11-10T17:51:17.108Z,10.91
2022-11-10T17:53:43.857Z,10.60
2022-11-10T17:56:10.527Z,10.40
2022-11-10T17:58:37.192Z,10.43
2022-11-10T18:01:18.653Z,10.33
2022-11-10T18:03:46.652Z,10.55
2022-11-10T18:06:17.651Z,10.66
2022-11-10T18:08:44.688Z,10.43
2022-11-10T18:11:14.267Z,10.33
2022-11-10T18:13:42.219Z,10.51
2022-11-10T18:16:11.094Z,10.50
2022-11-10T18:18:38.567Z,10.56
2022-11-10T18:21:06.508Z,10.56
2022-11-10T18:23:33.351Z,10.27
2022-11-10T18:26:04.634Z,10.10
2022-11-10T18:28:31.200Z,9.94
2022-11-10T18:30:57.803Z,10.01
2022-11-10T18:33:24.791Z,9.91
2022-11-10T18:35:51.684Z,9.97
2022-11-10T18:38:18.276Z,10.30
2022-11-10T18:40:44.908Z,10.34
2022-11-10T18:43:11.492Z,10.17
2022-11-10T18:45:38.313Z,10.05
2022-11-10T18:48:05.294Z,10.07
2022-11-10T18:50:32.115Z,10.17
2022-11-10T18:52:58.727Z,9.96
2022-11-10T18:55:25.805Z,9.95
2022-11-10T18:57:53.023Z,9.93
2022-11-10T19:00:19.839Z,9.94
2022-11-10T19:02:46.422Z,9.93
2022-11-10T19:05:13.109Z,10.11
2022-11-10T19:07:39.811Z,10.03
2022-11-10T19:10:06.638Z,9.76
2022-11-10T19:12:33.279Z,9.72
2022-11-10T19:14:59.929Z,9.75
2022-11-10T19:17:26.534Z,9.54
2022-11-10T19:22:24.395Z,9.70
2022-11-10T19:25:07.506Z,9.73
2022-11-10T19:27:34.756Z,9.73
2022-11-10T19:30:01.334Z,9.64
2022-11-10T19:32:29.665Z,9.57
2022-11-10T19:34:56.267Z,9.60
2022-11-10T19:37:22.871Z,9.66
2022-11-10T19:39:49.449Z,9.63
2022-11-10T19:42:16.124Z,9.51
2022-11-10T19:47:13.930Z,9.55
2022-11-10T19:49:40.571Z,9.60
2022-11-10T19:52:07.246Z,9.45
2022-11-10T19:54:33.907Z,9.50
2022-11-10T19:57:01.300Z,9.51
2022-11-10T19:59:28.026Z,9.32
2022-11-10T20:01:56.504Z,9.22
2022-11-10T20:04:23.149Z,9.25
2022-11-10T20:07:09.767Z,9.23
2022-11-10T20:09:36.418Z,9.26
2022-11-10T20:14:36.307Z,9.37
2022-11-10T20:17:02.935Z,9.34
2022-11-10T20:19:29.513Z,9.31
2022-11-10T20:21:56.114Z,9.32
2022-11-10T20:24:22.663Z,9.20
2022-11-10T20:26:50.105Z,9.25
2022-11-10T20:29:16.652Z,9.18
2022-11-10T20:31:43.239Z,9.28
2022-11-10T20:36:48.554Z,9.29
2022-11-10T20:39:15.165Z,9.34
2022-11-10T20:41:41.822Z,9.29
2022-11-10T20:44:08.438Z,9.24
2022-11-10T20:49:23.106Z,9.29
2022-11-10T20:51:49.692Z,9.29
2022-11-10T20:54:17.506Z,9.26
2022-11-10T20:56:44.112Z,9.16
2022-11-10T20:59:11.255Z,9.02
2022-11-10T21:01:38.051Z,8.72
2022-11-10T21:04:06.290Z,8.80
2022-11-10T21:06:32.987Z,8.92
2022-11-10T21:08:59.808Z,8.82
2022-11-10T21:11:45.149Z,8.87
2022-11-10T21:14:11.812Z,8.80
2022-11-10T21:16:38.528Z,8.88
2022-11-10T21:19:05.229Z,9.00
2022-11-10T21:21:35.044Z,8.92
2022-11-10T21:24:06.436Z,8.76
2022-11-10T21:26:34.631Z,8.53
2022-11-10T21:29:02.563Z,8.35
2022-11-10T21:31:30.742Z,8.39
2022-11-10T21:33:58.212Z,8.47
2022-11-10T21:36:29.200Z,8.56
2022-11-10T21:38:56.899Z,8.42
2022-11-10T21:41:23.521Z,8.45
2022-11-10T21:43:50.228Z,8.40
2022-11-10T21:46:17.009Z,8.36
2022-11-10T21:48:43.648Z,8.33
2022-11-10T21:51:12.543Z,8.49
2022-11-10T21:53:39.914Z,8.45
2022-11-10T21:56:08.811Z,8.39
2022-11-10T21:58:36.112Z,8.40
2022-11-10T22:01:06.832Z,8.43
2022-11-10T22:03:35.262Z,8.57
2022-11-10T22:06:05.616Z,8.57
2022-11-10T22:08:32.638Z,8.58
2022-11-10T22:11:17.952Z,8.49
2022-11-10T22:14:03.420Z,8.36
2022-11-10T22:16:52.162Z,8.16
2022-11-10T22:19:19.482Z,8.17
2022-11-10T22:21:46.112Z,8.16
2022-11-10T22:24:28.253Z,8.16
2022-11-10T22:27:02.775Z,7.94
2022-11-10T22:29:32.247Z,7.90
2022-11-10T22:32:02.366Z,8.04
2022-11-10T22:34:29.706Z,8.07
2022-11-10T22:36:56.433Z,8.08
2022-11-10T22:39:23.129Z,8.21
2022-11-10T22:42:08.283Z,8.31
2022-11-10T22:44:34.801Z,8.27
2022-11-10T22:47:01.483Z,8.33
2022-11-10T22:49:28.061Z,8.33
2022-11-10T22:51:55.558Z,8.15
2022-11-10T22:54:23.850Z,7.88
2022-11-10T22:56:53.983Z,7.89
2022-11-10T22:59:20.717Z,7.86
2022-11-10T23:01:47.345Z,7.85
2022-11-10T23:04:16.116Z,7.78
2022-11-10T23:06:43.169Z,7.96
2022-11-10T23:09:09.768Z,8.15
2022-11-10T23:11:36.448Z,8.13
2022-11-10T23:14:03.180Z,8.13
2022-11-10T23:16:33.800Z,8.03
2022-11-10T23:19:00.794Z,7.86
2022-11-10T23:21:29.384Z,7.89
2022-11-10T23:23:56.189Z,7.85
2022-11-10T23:26:25.363Z,7.70
2022-11-10T23:28:53.188Z,7.68
2022-11-10T23:31:24.955Z,7.67
2022-11-10T23:33:54.310Z,7.64
2022-11-10T23:36:22.664Z,7.77
2022-11-10T23:38:49.245Z,7.77
2022-11-10T23:41:20.952Z,7.73
2022-11-10T23:43:47.844Z,7.86
2022-11-10T23:46:14.508Z,7.91
2022-11-10T23:48:41.484Z,7.92
2022-11-10T23:51:10.681Z,7.93
2022-11-10T23:53:37.207Z,7.93
2022-11-10T23:56:06.826Z,7.90
2022-11-10T23:58:33.527Z,7.84
